sensor_id;sensor_type;location;lat;lon;timestamp;P1;durP1;ratioP1;P2;durP2;ratioP2
819;SDS011;392;48.838;2.322;2023-02-26T00:01:00;6.65;;;4.75;;
819;SDS011;392;48.838;2.322;2023-02-26T00:03:27;6.93;;;3.95;;
819;SDS011;392;48.838;2.322;2023-02-26T00:05:58;6.10;;;4.30;;
819;SDS011;392;48.838;2.322;2023-02-26T00:08:26;6.53;;;4.50;;
819;SDS011;392;48.838;2.322;2023-02-26T00:10:55;7.47;;;4.05;;
819;SDS011;392;48.838;2.322;2023-02-26T00:13:26;4.32;;;3.90;;
819;SDS011;392;48.838;2.322;2023-02-26T00:15:55;6.30;;;4.40;;
819;SDS011;392;48.838;2.322;2023-02-26T00:18:27;3.80;;;3.20;;
819;SDS011;392;48.838;2.322;2023-02-26T00:20:55;4.00;;;3.45;;
819;SDS011;392;48.838;2.322;2023-02-26T00:23:23;5.10;;;3.95;;
819;SDS011;392;48.838;2.322;2023-02-26T00:25:51;4.75;;;4.00;;
819;SDS011;392;48.838;2.322;2023-02-26T00:28:19;4.50;;;3.97;;
819;SDS011;392;48.838;2.322;2023-02-26T00:30:47;5.85;;;3.50;;
819;SDS011;392;48.838;2.322;2023-02-26T00:33:16;5.22;;;3.78;;
819;SDS011;392;48.838;2.322;2023-02-26T00:35:44;5.70;;;3.70;;
819;SDS011;392;48.838;2.322;2023-02-26T00:38:13;5.63;;;3.90;;
819;SDS011;392;48.838;2.322;2023-02-26T00:40:44;5.40;;;4.22;;
819;SDS011;392;48.838;2.322;2023-02-26T00:43:13;5.88;;;4.05;;
819;SDS011;392;48.838;2.322;2023-02-26T00:45:46;4.93;;;4.43;;
819;SDS011;392;48.838;2.322;2023-02-26T00:48:27;6.78;;;3.75;;
819;SDS011;392;48.838;2.322;2023-02-26T00:51:07;4.00;;;3.60;;
819;SDS011;392;48.838;2.322;2023-02-26T00:53:45;6.25;;;3.70;;
819;SDS011;392;48.838;2.322;2023-02-26T00:56:19;4.53;;;4.00;;
819;SDS011;392;48.838;2.322;2023-02-26T00:58:46;4.68;;;3.75;;
819;SDS011;392;48.838;2.322;2023-02-26T01:01:13;3.63;;;3.35;;
819;SDS011;392;48.838;2.322;2023-02-26T01:03:42;6.72;;;4.00;;
819;SDS011;392;48.838;2.322;2023-02-26T01:06:11;7.38;;;4.05;;
819;SDS011;392;48.838;2.322;2023-02-26T01:08:42;4.13;;;3.72;;
819;SDS011;392;48.838;2.322;2023-02-26T01:11:18;3.75;;;3.42;;
819;SDS011;392;48.838;2.322;2023-02-26T01:13:46;6.78;;;4.88;;
819;SDS011;392;48.838;2.322;2023-02-26T01:16:16;4.63;;;3.83;;
819;SDS011;392;48.838;2.322;2023-02-26T01:18:53;7.30;;;3.75;;
819;SDS011;392;48.838;2.322;2023-02-26T01:21:27;4.00;;;3.60;;
819;SDS011;392;48.838;2.322;2023-02-26T01:24:02;4.85;;;4.35;;
819;SDS011;392;48.838;2.322;2023-02-26T01:26:33;5.35;;;3.80;;
819;SDS011;392;48.838;2.322;2023-02-26T01:29:00;4.55;;;3.50;;
819;SDS011;392;48.838;2.322;2023-02-26T01:31:33;4.88;;;4.00;;
819;SDS011;392;48.838;2.322;2023-02-26T01:34:09;6.30;;;4.45;;
819;SDS011;392;48.838;2.322;2023-02-26T01:36:46;4.85;;;3.63;;
819;SDS011;392;48.838;2.322;2023-02-26T01:39:22;4.03;;;3.72;;
819;SDS011;392;48.838;2.322;2023-02-26T01:41:57;6.55;;;4.00;;
819;SDS011;392;48.838;2.322;2023-02-26T01:44:32;5.53;;;3.83;;
819;SDS011;392;48.838;2.322;2023-02-26T01:47:09;5.80;;;4.35;;
819;SDS011;392;48.838;2.322;2023-02-26T01:49:45;5.85;;;4.13;;
819;SDS011;392;48.838;2.322;2023-02-26T01:55:46;5.88;;;4.32;;
819;SDS011;392;48.838;2.322;2023-02-26T01:58:17;4.43;;;3.60;;
819;SDS011;392;48.838;2.322;2023-02-26T02:00:47;5.25;;;4.00;;
819;SDS011;392;48.838;2.322;2023-02-26T02:03:14;6.65;;;4.30;;
819;SDS011;392;48.838;2.322;2023-02-26T02:05:44;4.20;;;3.85;;
819;SDS011;392;48.838;2.322;2023-02-26T02:08:16;4.13;;;3.30;;
819;SDS011;392;48.838;2.322;2023-02-26T02:10:46;5.20;;;3.58;;
819;SDS011;392;48.838;2.322;2023-02-26T02:13:24;5.03;;;3.58;;
819;SDS011;392;48.838;2.322;2023-02-26T02:16:06;5.90;;;4.10;;
819;SDS011;392;48.838;2.322;2023-02-26T02:18:46;4.45;;;3.30;;
819;SDS011;392;48.838;2.322;2023-02-26T02:21:29;4.28;;;3.70;;
819;SDS011;392;48.838;2.322;2023-02-26T02:24:13;5.03;;;3.25;;
819;SDS011;392;48.838;2.322;2023-02-26T02:26:52;3.45;;;3.15;;
819;SDS011;392;48.838;2.322;2023-02-26T02:32:21;6.93;;;3.50;;
819;SDS011;392;48.838;2.322;2023-02-26T02:34:56;3.97;;;3.40;;
819;SDS011;392;48.838;2.322;2023-02-26T02:37:33;7.32;;;3.97;;
819;SDS011;392;48.838;2.322;2023-02-26T02:40:07;5.78;;;2.85;;
819;SDS011;392;48.838;2.322;2023-02-26T02:42:40;3.47;;;3.10;;
819;SDS011;392;48.838;2.322;2023-02-26T02:45:15;3.22;;;2.92;;
819;SDS011;392;48.838;2.322;2023-02-26T02:47:50;3.33;;;2.90;;
819;SDS011;392;48.838;2.322;2023-02-26T02:50:23;3.85;;;3.08;;
819;SDS011;392;48.838;2.322;2023-02-26T02:52:56;6.75;;;3.30;;
819;SDS011;392;48.838;2.322;2023-02-26T02:55:28;3.13;;;2.92;;
819;SDS011;392;48.838;2.322;2023-02-26T02:58:01;3.83;;;2.90;;
819;SDS011;392;48.838;2.322;2023-02-26T03:00:35;3.55;;;3.25;;
819;SDS011;392;48.838;2.322;2023-02-26T03:03:10;3.83;;;3.47;;
819;SDS011;392;48.838;2.322;2023-02-26T03:05:44;3.20;;;2.88;;
819;SDS011;392;48.838;2.322;2023-02-26T03:08:13;4.22;;;2.95;;
819;SDS011;392;48.838;2.322;2023-02-26T03:10:45;6.82;;;3.22;;
819;SDS011;392;48.838;2.322;2023-02-26T03:13:14;5.35;;;3.20;;
819;SDS011;392;48.838;2.322;2023-02-26T03:15:46;4.50;;;3.92;;
819;SDS011;392;48.838;2.322;2023-02-26T03:18:44;4.35;;;2.65;;
819;SDS011;392;48.838;2.322;2023-02-26T03:21:29;3.20;;;2.90;;
819;SDS011;392;48.838;2.322;2023-02-26T03:24:05;3.92;;;2.70;;
819;SDS011;392;48.838;2.322;2023-02-26T03:26:39;4.20;;;2.97;;
819;SDS011;392;48.838;2.322;2023-02-26T03:29:13;7.00;;;3.00;;
819;SDS011;392;48.838;2.322;2023-02-26T03:31:52;4.35;;;2.70;;
819;SDS011;392;48.838;2.322;2023-02-26T03:34:25;4.13;;;3.00;;
819;SDS011;392;48.838;2.322;2023-02-26T03:36:59;6.38;;;3.30;;
819;SDS011;392;48.838;2.322;2023-02-26T03:39:33;4.88;;;3.00;;
819;SDS011;392;48.838;2.322;2023-02-26T03:42:07;3.17;;;2.90;;
819;SDS011;392;48.838;2.322;2023-02-26T03:44:50;3.00;;;2.75;;
819;SDS011;392;48.838;2.322;2023-02-26T03:47:21;5.15;;;2.97;;
819;SDS011;392;48.838;2.322;2023-02-26T03:49:54;4.80;;;2.60;;
819;SDS011;392;48.838;2.322;2023-02-26T03:52:27;3.72;;;3.30;;
819;SDS011;392;48.838;2.322;2023-02-26T03:55:27;7.45;;;3.50;;
819;SDS011;392;48.838;2.322;2023-02-26T03:58:15;3.80;;;3.17;;
819;SDS011;392;48.838;2.322;2023-02-26T04:01:06;3.28;;;2.95;;
819;SDS011;392;48.838;2.322;2023-02-26T04:03:42;5.18;;;3.08;;
819;SDS011;392;48.838;2.322;2023-02-26T04:06:14;4.80;;;2.95;;
819;SDS011;392;48.838;2.322;2023-02-26T04:08:44;5.75;;;3.15;;
819;SDS011;392;48.838;2.322;2023-02-26T04:11:13;4.32;;;3.20;;
819;SDS011;392;48.838;2.322;2023-02-26T04:13:44;3.88;;;3.03;;
819;SDS011;392;48.838;2.322;2023-02-26T04:16:13;4.28;;;3.05;;
819;SDS011;392;48.838;2.322;2023-02-26T04:18:41;3.53;;;3.20;;
819;SDS011;392;48.838;2.322;2023-02-26T04:21:09;4.95;;;3.15;;
819;SDS011;392;48.838;2.322;2023-02-26T04:23:39;5.00;;;3.38;;
819;SDS011;392;48.838;2.322;2023-02-26T04:26:07;3.42;;;3.13;;
819;SDS011;392;48.838;2.322;2023-02-26T04:28:38;3.10;;;2.80;;
819;SDS011;392;48.838;2.322;2023-02-26T04:31:06;5.57;;;3.65;;
819;SDS011;392;48.838;2.322;2023-02-26T04:33:34;3.65;;;3.08;;
819;SDS011;392;48.838;2.322;2023-02-26T04:36:02;3.92;;;3.50;;
819;SDS011;392;48.838;2.322;2023-02-26T04:38:30;3.58;;;2.75;;
819;SDS011;392;48.838;2.322;2023-02-26T04:40:59;6.78;;;2.80;;
819;SDS011;392;48.838;2.322;2023-02-26T04:43:27;4.47;;;3.10;;
819;SDS011;392;48.838;2.322;2023-02-26T04:46:20;3.63;;;3.30;;
819;SDS011;392;48.838;2.322;2023-02-26T04:48:48;3.60;;;3.30;;
819;SDS011;392;48.838;2.322;2023-02-26T04:51:15;5.00;;;2.92;;
819;SDS011;392;48.838;2.322;2023-02-26T04:53:43;5.40;;;3.65;;
819;SDS011;392;48.838;2.322;2023-02-26T04:56:12;4.20;;;3.47;;
819;SDS011;392;48.838;2.322;2023-02-26T04:58:40;3.10;;;2.90;;
819;SDS011;392;48.838;2.322;2023-02-26T05:01:13;6.57;;;3.70;;
819;SDS011;392;48.838;2.322;2023-02-26T05:03:40;4.13;;;3.70;;
819;SDS011;392;48.838;2.322;2023-02-26T05:06:08;6.70;;;3.70;;
819;SDS011;392;48.838;2.322;2023-02-26T05:08:36;5.32;;;4.00;;
819;SDS011;392;48.838;2.322;2023-02-26T05:11:06;4.00;;;3.15;;
819;SDS011;392;48.838;2.322;2023-02-26T05:13:35;4.93;;;3.55;;
819;SDS011;392;48.838;2.322;2023-02-26T05:16:04;4.28;;;3.45;;
819;SDS011;392;48.838;2.322;2023-02-26T05:18:32;5.95;;;3.78;;
819;SDS011;392;48.838;2.322;2023-02-26T05:21:00;3.72;;;3.38;;
819;SDS011;392;48.838;2.322;2023-02-26T05:23:28;6.03;;;4.07;;
819;SDS011;392;48.838;2.322;2023-02-26T05:25:55;3.88;;;3.47;;
819;SDS011;392;48.838;2.322;2023-02-26T05:28:23;5.60;;;3.30;;
819;SDS011;392;48.838;2.322;2023-02-26T05:30:54;4.47;;;3.15;;
819;SDS011;392;48.838;2.322;2023-02-26T05:33:23;3.65;;;3.22;;
819;SDS011;392;48.838;2.322;2023-02-26T05:35:51;3.58;;;3.28;;
819;SDS011;392;48.838;2.322;2023-02-26T05:38:18;6.30;;;3.50;;
819;SDS011;392;48.838;2.322;2023-02-26T05:40:45;6.78;;;3.22;;
819;SDS011;392;48.838;2.322;2023-02-26T05:43:13;4.25;;;3.15;;
819;SDS011;392;48.838;2.322;2023-02-26T05:45:40;5.22;;;3.55;;
819;SDS011;392;48.838;2.322;2023-02-26T05:48:09;5.20;;;3.50;;
819;SDS011;392;48.838;2.322;2023-02-26T05:50:37;4.65;;;3.20;;
819;SDS011;392;48.838;2.322;2023-02-26T05:53:05;6.15;;;3.38;;
819;SDS011;392;48.838;2.322;2023-02-26T05:55:32;4.80;;;3.30;;
819;SDS011;392;48.838;2.322;2023-02-26T05:57:59;4.15;;;3.63;;
819;SDS011;392;48.838;2.322;2023-02-26T06:00:28;5.00;;;3.50;;
819;SDS011;392;48.838;2.322;2023-02-26T06:02:55;6.43;;;3.45;;
819;SDS011;392;48.838;2.322;2023-02-26T06:05:24;6.35;;;4.10;;
819;SDS011;392;48.838;2.322;2023-02-26T06:07:51;5.13;;;3.70;;
819;SDS011;392;48.838;2.322;2023-02-26T06:10:19;6.07;;;4.35;;
819;SDS011;392;48.838;2.322;2023-02-26T06:12:46;4.72;;;4.30;;
819;SDS011;392;48.838;2.322;2023-02-26T06:15:14;6.05;;;4.40;;
819;SDS011;392;48.838;2.322;2023-02-26T06:17:41;4.65;;;4.00;;
819;SDS011;392;48.838;2.322;2023-02-26T06:20:09;6.03;;;4.00;;
819;SDS011;392;48.838;2.322;2023-02-26T06:22:39;5.47;;;3.85;;
819;SDS011;392;48.838;2.322;2023-02-26T06:25:07;6.05;;;4.22;;
819;SDS011;392;48.838;2.322;2023-02-26T06:27:35;6.07;;;3.97;;
819;SDS011;392;48.838;2.322;2023-02-26T06:30:03;6.78;;;4.18;;
819;SDS011;392;48.838;2.322;2023-02-26T06:32:32;4.68;;;4.20;;
819;SDS011;392;48.838;2.322;2023-02-26T06:34:59;4.68;;;4.03;;
819;SDS011;392;48.838;2.322;2023-02-26T06:37:26;6.57;;;3.88;;
819;SDS011;392;48.838;2.322;2023-02-26T06:39:55;5.57;;;4.30;;
819;SDS011;392;48.838;2.322;2023-02-26T06:42:23;5.82;;;4.40;;
819;SDS011;392;48.838;2.322;2023-02-26T06:44:50;5.60;;;4.20;;
819;SDS011;392;48.838;2.322;2023-02-26T06:47:17;5.55;;;4.32;;
819;SDS011;392;48.838;2.322;2023-02-26T06:49:45;8.65;;;4.40;;
819;SDS011;392;48.838;2.322;2023-02-26T06:52:13;10.57;;;4.97;;
819;SDS011;392;48.838;2.322;2023-02-26T06:54:40;5.60;;;4.47;;
819;SDS011;392;48.838;2.322;2023-02-26T06:57:09;4.95;;;4.45;;
819;SDS011;392;48.838;2.322;2023-02-26T06:59:36;6.85;;;5.07;;
819;SDS011;392;48.838;2.322;2023-02-26T07:02:05;4.90;;;4.50;;
819;SDS011;392;48.838;2.322;2023-02-26T07:04:32;5.90;;;4.60;;
819;SDS011;392;48.838;2.322;2023-02-26T07:06:59;5.55;;;4.50;;
819;SDS011;392;48.838;2.322;2023-02-26T07:09:26;7.00;;;4.78;;
819;SDS011;392;48.838;2.322;2023-02-26T07:11:54;4.97;;;4.45;;
819;SDS011;392;48.838;2.322;2023-02-26T07:14:22;5.50;;;4.60;;
819;SDS011;392;48.838;2.322;2023-02-26T07:16:50;6.65;;;4.78;;
819;SDS011;392;48.838;2.322;2023-02-26T07:19:17;6.50;;;4.90;;
819;SDS011;392;48.838;2.322;2023-02-26T07:21:44;5.10;;;4.60;;
819;SDS011;392;48.838;2.322;2023-02-26T07:24:13;6.65;;;4.68;;
819;SDS011;392;48.838;2.322;2023-02-26T07:26:40;5.47;;;4.47;;
819;SDS011;392;48.838;2.322;2023-02-26T07:29:08;6.65;;;4.75;;
819;SDS011;392;48.838;2.322;2023-02-26T07:31:37;5.13;;;4.70;;
819;SDS011;392;48.838;2.322;2023-02-26T07:34:04;6.22;;;4.30;;
819;SDS011;392;48.838;2.322;2023-02-26T07:36:31;6.43;;;4.97;;
819;SDS011;392;48.838;2.322;2023-02-26T07:38:59;6.82;;;4.90;;
819;SDS011;392;48.838;2.322;2023-02-26T07:41:26;6.20;;;5.50;;
819;SDS011;392;48.838;2.322;2023-02-26T07:43:53;5.63;;;4.85;;
819;SDS011;392;48.838;2.322;2023-02-26T07:46:21;7.88;;;4.45;;
819;SDS011;392;48.838;2.322;2023-02-26T07:48:49;5.85;;;5.20;;
819;SDS011;392;48.838;2.322;2023-02-26T07:51:16;6.07;;;4.63;;
819;SDS011;392;48.838;2.322;2023-02-26T07:53:44;6.00;;;4.97;;
819;SDS011;392;48.838;2.322;2023-02-26T07:56:11;6.07;;;4.95;;
819;SDS011;392;48.838;2.322;2023-02-26T07:58:39;4.60;;;4.10;;
819;SDS011;392;48.838;2.322;2023-02-26T08:01:06;4.72;;;4.32;;
819;SDS011;392;48.838;2.322;2023-02-26T08:03:33;4.68;;;4.10;;
819;SDS011;392;48.838;2.322;2023-02-26T08:06:02;4.70;;;4.30;;
819;SDS011;392;48.838;2.322;2023-02-26T08:08:31;6.00;;;4.20;;
819;SDS011;392;48.838;2.322;2023-02-26T08:10:59;5.43;;;3.95;;
819;SDS011;392;48.838;2.322;2023-02-26T08:13:26;5.20;;;4.70;;
819;SDS011;392;48.838;2.322;2023-02-26T08:15:53;5.45;;;4.00;;
819;SDS011;392;48.838;2.322;2023-02-26T08:18:21;5.75;;;4.85;;
819;SDS011;392;48.838;2.322;2023-02-26T08:20:49;5.35;;;4.63;;
819;SDS011;392;48.838;2.322;2023-02-26T08:23:18;6.63;;;5.40;;
819;SDS011;392;48.838;2.322;2023-02-26T08:25:46;5.20;;;4.30;;
819;SDS011;392;48.838;2.322;2023-02-26T08:28:13;5.25;;;4.75;;
819;SDS011;392;48.838;2.322;2023-02-26T08:30:40;4.57;;;4.18;;
819;SDS011;392;48.838;2.322;2023-02-26T08:33:08;6.68;;;3.83;;
819;SDS011;392;48.838;2.322;2023-02-26T08:35:35;5.88;;;4.55;;
819;SDS011;392;48.838;2.322;2023-02-26T08:38:02;9.10;;;5.22;;
819;SDS011;392;48.838;2.322;2023-02-26T08:40:31;8.75;;;5.40;;
819;SDS011;392;48.838;2.322;2023-02-26T08:42:59;5.15;;;4.65;;
819;SDS011;392;48.838;2.322;2023-02-26T08:45:28;4.93;;;4.40;;
819;SDS011;392;48.838;2.322;2023-02-26T08:47:55;7.78;;;4.55;;
819;SDS011;392;48.838;2.322;2023-02-26T08:50:23;5.93;;;4.28;;
819;SDS011;392;48.838;2.322;2023-02-26T08:52:51;5.57;;;4.70;;
819;SDS011;392;48.838;2.322;2023-02-26T08:55:19;5.75;;;4.47;;
819;SDS011;392;48.838;2.322;2023-02-26T08:57:48;4.60;;;4.20;;
819;SDS011;392;48.838;2.322;2023-02-26T09:00:15;5.15;;;4.28;;
819;SDS011;392;48.838;2.322;2023-02-26T09:02:43;4.35;;;3.95;;
819;SDS011;392;48.838;2.322;2023-02-26T09:05:11;4.47;;;4.00;;
819;SDS011;392;48.838;2.322;2023-02-26T09:07:39;6.47;;;3.65;;
819;SDS011;392;48.838;2.322;2023-02-26T09:10:07;9.75;;;4.20;;
819;SDS011;392;48.838;2.322;2023-02-26T09:12:37;5.63;;;3.80;;
819;SDS011;392;48.838;2.322;2023-02-26T09:15:06;6.43;;;3.88;;
819;SDS011;392;48.838;2.322;2023-02-26T09:17:36;4.57;;;3.50;;
819;SDS011;392;48.838;2.322;2023-02-26T09:20:04;4.72;;;3.35;;
819;SDS011;392;48.838;2.322;2023-02-26T09:22:33;3.95;;;3.08;;
819;SDS011;392;48.838;2.322;2023-02-26T09:25:00;3.70;;;3.38;;
819;SDS011;392;48.838;2.322;2023-02-26T09:27:28;3.13;;;2.80;;
819;SDS011;392;48.838;2.322;2023-02-26T09:29:56;4.82;;;3.08;;
819;SDS011;392;48.838;2.322;2023-02-26T09:32:25;4.82;;;2.70;;
819;SDS011;392;48.838;2.322;2023-02-26T09:34:52;4.55;;;3.10;;
819;SDS011;392;48.838;2.322;2023-02-26T09:37:20;3.78;;;2.92;;
819;SDS011;392;48.838;2.322;2023-02-26T09:39:47;2.97;;;2.40;;
819;SDS011;392;48.838;2.322;2023-02-26T09:42:17;5.63;;;2.90;;
819;SDS011;392;48.838;2.322;2023-02-26T09:44:57;3.05;;;2.50;;
819;SDS011;392;48.838;2.322;2023-02-26T09:47:27;3.30;;;3.00;;
819;SDS011;392;48.838;2.322;2023-02-26T09:50:05;3.42;;;2.90;;
819;SDS011;392;48.838;2.322;2023-02-26T09:52:42;4.63;;;2.50;;
819;SDS011;392;48.838;2.322;2023-02-26T09:55:16;3.58;;;2.42;;
819;SDS011;392;48.838;2.322;2023-02-26T09:57:54;4.03;;;2.20;;
819;SDS011;392;48.838;2.322;2023-02-26T10:00:28;3.42;;;2.63;;
819;SDS011;392;48.838;2.322;2023-02-26T10:03:03;2.90;;;2.70;;
819;SDS011;392;48.838;2.322;2023-02-26T10:05:45;3.30;;;2.70;;
819;SDS011;392;48.838;2.322;2023-02-26T10:08:45;3.00;;;2.55;;
819;SDS011;392;48.838;2.322;2023-02-26T10:11:26;5.35;;;2.70;;
819;SDS011;392;48.838;2.322;2023-02-26T10:14:00;3.28;;;2.65;;
819;SDS011;392;48.838;2.322;2023-02-26T10:16:32;2.22;;;2.03;;
819;SDS011;392;48.838;2.322;2023-02-26T10:19:07;2.92;;;2.72;;
819;SDS011;392;48.838;2.322;2023-02-26T10:21:39;3.85;;;2.80;;
819;SDS011;392;48.838;2.322;2023-02-26T10:24:14;4.00;;;2.38;;
819;SDS011;392;48.838;2.322;2023-02-26T10:26:49;4.03;;;2.78;;
819;SDS011;392;48.838;2.322;2023-02-26T10:29:22;2.40;;;2.20;;
819;SDS011;392;48.838;2.322;2023-02-26T10:32:00;6.47;;;2.42;;
819;SDS011;392;48.838;2.322;2023-02-26T10:34:45;2.88;;;2.20;;
819;SDS011;392;48.838;2.322;2023-02-26T10:37:18;2.42;;;2.22;;
819;SDS011;392;48.838;2.322;2023-02-26T10:39:52;2.65;;;2.08;;
819;SDS011;392;48.838;2.322;2023-02-26T10:42:24;2.13;;;1.92;;
819;SDS011;392;48.838;2.322;2023-02-26T10:44:59;2.20;;;1.50;;
819;SDS011;392;48.838;2.322;2023-02-26T10:47:54;1.88;;;1.52;;
819;SDS011;392;48.838;2.322;2023-02-26T10:50:36;3.33;;;1.60;;
819;SDS011;392;48.838;2.322;2023-02-26T10:53:17;2.67;;;2.10;;
819;SDS011;392;48.838;2.322;2023-02-26T10:55:46;2.53;;;1.92;;
819;SDS011;392;48.838;2.322;2023-02-26T10:58:18;1.88;;;1.77;;
819;SDS011;392;48.838;2.322;2023-02-26T11:00:50;2.40;;;2.20;;
819;SDS011;392;48.838;2.322;2023-02-26T11:03:21;5.03;;;2.00;;
819;SDS011;392;48.838;2.322;2023-02-26T11:06:00;1.45;;;1.45;;
819;SDS011;392;48.838;2.322;2023-02-26T11:08:31;3.05;;;1.73;;
819;SDS011;392;48.838;2.322;2023-02-26T11:11:01;2.83;;;1.80;;
819;SDS011;392;48.838;2.322;2023-02-26T11:13:31;2.22;;;1.85;;
819;SDS011;392;48.838;2.322;2023-02-26T11:16:01;2.90;;;2.22;;
819;SDS011;392;48.838;2.322;2023-02-26T11:18:35;2.22;;;1.83;;
819;SDS011;392;48.838;2.322;2023-02-26T11:21:16;1.70;;;1.60;;
819;SDS011;392;48.838;2.322;2023-02-26T11:23:48;3.20;;;1.77;;
819;SDS011;392;48.838;2.322;2023-02-26T11:26:24;2.30;;;2.08;;
819;SDS011;392;48.838;2.322;2023-02-26T11:28:53;1.77;;;1.45;;
819;SDS011;392;48.838;2.322;2023-02-26T11:31:22;1.85;;;1.70;;
819;SDS011;392;48.838;2.322;2023-02-26T11:33:50;1.85;;;1.75;;
819;SDS011;392;48.838;2.322;2023-02-26T11:36:21;4.03;;;1.90;;
819;SDS011;392;48.838;2.322;2023-02-26T11:38:52;2.45;;;1.90;;
819;SDS011;392;48.838;2.322;2023-02-26T11:41:23;2.20;;;2.00;;
819;SDS011;392;48.838;2.322;2023-02-26T11:43:57;1.92;;;1.65;;
819;SDS011;392;48.838;2.322;2023-02-26T11:46:28;2.95;;;2.30;;
819;SDS011;392;48.838;2.322;2023-02-26T11:48:57;4.82;;;1.90;;
819;SDS011;392;48.838;2.322;2023-02-26T11:51:27;6.82;;;3.55;;
819;SDS011;392;48.838;2.322;2023-02-26T11:53:55;3.08;;;2.40;;
819;SDS011;392;48.838;2.322;2023-02-26T11:56:26;2.17;;;2.08;;
819;SDS011;392;48.838;2.322;2023-02-26T11:58:59;4.88;;;2.30;;
819;SDS011;392;48.838;2.322;2023-02-26T12:01:34;3.63;;;2.95;;
819;SDS011;392;48.838;2.322;2023-02-26T12:04:02;2.72;;;2.47;;
819;SDS011;392;48.838;2.322;2023-02-26T12:06:31;2.67;;;2.40;;
819;SDS011;392;48.838;2.322;2023-02-26T12:08:58;2.25;;;2.15;;
819;SDS011;392;48.838;2.322;2023-02-26T12:11:35;3.20;;;2.90;;
819;SDS011;392;48.838;2.322;2023-02-26T12:14:24;2.20;;;2.10;;
819;SDS011;392;48.838;2.322;2023-02-26T12:17:11;2.23;;;2.10;;
819;SDS011;392;48.838;2.322;2023-02-26T12:19:53;2.30;;;2.20;;
819;SDS011;392;48.838;2.322;2023-02-26T12:22:45;2.00;;;1.90;;
819;SDS011;392;48.838;2.322;2023-02-26T12:31:43;3.20;;;2.30;;
819;SDS011;392;48.838;2.322;2023-02-26T12:34:50;2.50;;;2.10;;
819;SDS011;392;48.838;2.322;2023-02-26T12:37:50;2.70;;;2.50;;
819;SDS011;392;48.838;2.322;2023-02-26T12:44:16;1.67;;;1.57;;
819;SDS011;392;48.838;2.322;2023-02-26T12:47:10;2.03;;;1.93;;
819;SDS011;392;48.838;2.322;2023-02-26T12:55:59;1.90;;;1.80;;
819;SDS011;392;48.838;2.322;2023-02-26T12:58:57;2.10;;;2.00;;
819;SDS011;392;48.838;2.322;2023-02-26T13:01:58;3.00;;;2.77;;
819;SDS011;392;48.838;2.322;2023-02-26T13:04:54;1.90;;;1.80;;
819;SDS011;392;48.838;2.322;2023-02-26T13:07:47;3.77;;;2.20;;
819;SDS011;392;48.838;2.322;2023-02-26T13:10:26;2.93;;;2.20;;
819;SDS011;392;48.838;2.322;2023-02-26T13:13:11;2.40;;;2.20;;
819;SDS011;392;48.838;2.322;2023-02-26T13:16:03;3.17;;;2.93;;
819;SDS011;392;48.838;2.322;2023-02-26T13:18:45;3.10;;;2.80;;
819;SDS011;392;48.838;2.322;2023-02-26T13:21:22;3.37;;;3.07;;
819;SDS011;392;48.838;2.322;2023-02-26T13:23:54;2.00;;;1.90;;
819;SDS011;392;48.838;2.322;2023-02-26T13:26:28;2.00;;;1.90;;
819;SDS011;392;48.838;2.322;2023-02-26T13:28:57;2.53;;;2.43;;
819;SDS011;392;48.838;2.322;2023-02-26T13:31:29;2.10;;;2.00;;
819;SDS011;392;48.838;2.322;2023-02-26T13:34:01;1.93;;;1.83;;
819;SDS011;392;48.838;2.322;2023-02-26T13:36:36;2.27;;;2.07;;
819;SDS011;392;48.838;2.322;2023-02-26T13:39:26;2.13;;;1.97;;
819;SDS011;392;48.838;2.322;2023-02-26T13:42:09;1.93;;;1.83;;
819;SDS011;392;48.838;2.322;2023-02-26T13:44:50;1.83;;;1.73;;
819;SDS011;392;48.838;2.322;2023-02-26T13:47:32;2.17;;;2.00;;
819;SDS011;392;48.838;2.322;2023-02-26T13:50:18;2.60;;;2.03;;
819;SDS011;392;48.838;2.322;2023-02-26T13:52:53;1.90;;;1.80;;
819;SDS011;392;48.838;2.322;2023-02-26T13:55:42;2.40;;;1.60;;
819;SDS011;392;48.838;2.322;2023-02-26T13:58:16;1.90;;;1.67;;
819;SDS011;392;48.838;2.322;2023-02-26T14:01:04;2.10;;;1.90;;
819;SDS011;392;48.838;2.322;2023-02-26T14:03:40;3.83;;;1.77;;
819;SDS011;392;48.838;2.322;2023-02-26T14:06:23;4.43;;;1.97;;
819;SDS011;392;48.838;2.322;2023-02-26T14:09:04;2.40;;;2.17;;
819;SDS011;392;48.838;2.322;2023-02-26T14:12:22;2.23;;;2.00;;
819;SDS011;392;48.838;2.322;2023-02-26T14:15:18;2.17;;;1.97;;
819;SDS011;392;48.838;2.322;2023-02-26T14:18:05;2.50;;;2.30;;
819;SDS011;392;48.838;2.322;2023-02-26T14:20:45;2.53;;;2.10;;
819;SDS011;392;48.838;2.322;2023-02-26T14:23:33;2.30;;;2.20;;
819;SDS011;392;48.838;2.322;2023-02-26T14:26:03;3.10;;;2.20;;
819;SDS011;392;48.838;2.322;2023-02-26T14:28:42;2.53;;;1.80;;
819;SDS011;392;48.838;2.322;2023-02-26T14:31:25;3.03;;;2.00;;
819;SDS011;392;48.838;2.322;2023-02-26T14:34:30;3.80;;;2.13;;
819;SDS011;392;48.838;2.322;2023-02-26T14:37:01;2.07;;;1.80;;
819;SDS011;392;48.838;2.322;2023-02-26T14:39:33;3.70;;;2.10;;
819;SDS011;392;48.838;2.322;2023-02-26T14:42:05;2.00;;;1.90;;
819;SDS011;392;48.838;2.322;2023-02-26T14:44:39;5.40;;;1.93;;
819;SDS011;392;48.838;2.322;2023-02-26T14:47:11;3.07;;;2.57;;
819;SDS011;392;48.838;2.322;2023-02-26T14:49:41;3.27;;;2.23;;
819;SDS011;392;48.838;2.322;2023-02-26T14:52:31;2.30;;;2.10;;
819;SDS011;392;48.838;2.322;2023-02-26T14:55:17;3.13;;;2.30;;
819;SDS011;392;48.838;2.322;2023-02-26T14:58:09;2.10;;;1.90;;
819;SDS011;392;48.838;2.322;2023-02-26T15:00:57;2.57;;;2.10;;
819;SDS011;392;48.838;2.322;2023-02-26T15:03:48;1.80;;;1.70;;
819;SDS011;392;48.838;2.322;2023-02-26T15:07:01;2.50;;;2.30;;
819;SDS011;392;48.838;2.322;2023-02-26T15:09:47;4.70;;;2.95;;
819;SDS011;392;48.838;2.322;2023-02-26T15:12:37;2.70;;;2.50;;
819;SDS011;392;48.838;2.322;2023-02-26T15:15:31;3.35;;;2.35;;
819;SDS011;392;48.838;2.322;2023-02-26T15:18:18;2.50;;;2.40;;
819;SDS011;392;48.838;2.322;2023-02-26T15:21:11;2.55;;;2.35;;
819;SDS011;392;48.838;2.322;2023-02-26T15:23:48;3.03;;;2.67;;
819;SDS011;392;48.838;2.322;2023-02-26T15:26:19;2.85;;;2.65;;
819;SDS011;392;48.838;2.322;2023-02-26T15:28:50;8.70;;;2.70;;
819;SDS011;392;48.838;2.322;2023-02-26T15:31:19;2.65;;;2.45;;
819;SDS011;392;48.838;2.322;2023-02-26T15:33:54;3.00;;;2.80;;
819;SDS011;392;48.838;2.322;2023-02-26T15:36:23;2.90;;;2.67;;
819;SDS011;392;48.838;2.322;2023-02-26T15:38:53;3.05;;;2.85;;
819;SDS011;392;48.838;2.322;2023-02-26T15:41:23;4.03;;;2.70;;
819;SDS011;392;48.838;2.322;2023-02-26T15:43:54;3.92;;;2.97;;
819;SDS011;392;48.838;2.322;2023-02-26T15:46:26;3.30;;;3.10;;
819;SDS011;392;48.838;2.322;2023-02-26T15:48:59;2.97;;;2.78;;
819;SDS011;392;48.838;2.322;2023-02-26T15:51:32;3.25;;;3.05;;
819;SDS011;392;48.838;2.322;2023-02-26T15:54:00;3.40;;;3.10;;
819;SDS011;392;48.838;2.322;2023-02-26T15:56:30;3.70;;;3.40;;
819;SDS011;392;48.838;2.322;2023-02-26T15:59:02;3.20;;;3.10;;
819;SDS011;392;48.838;2.322;2023-02-26T16:01:34;3.70;;;3.10;;
819;SDS011;392;48.838;2.322;2023-02-26T16:04:03;3.40;;;3.20;;
819;SDS011;392;48.838;2.322;2023-02-26T16:06:38;3.15;;;2.95;;
819;SDS011;392;48.838;2.322;2023-02-26T16:09:15;3.40;;;3.20;;
819;SDS011;392;48.838;2.322;2023-02-26T16:11:44;6.13;;;3.00;;
819;SDS011;392;48.838;2.322;2023-02-26T16:14:16;3.30;;;3.10;;
819;SDS011;392;48.838;2.322;2023-02-26T16:16:48;3.08;;;2.70;;
819;SDS011;392;48.838;2.322;2023-02-26T16:19:18;3.70;;;3.50;;
819;SDS011;392;48.838;2.322;2023-02-26T16:21:56;3.25;;;2.97;;
819;SDS011;392;48.838;2.322;2023-02-26T16:24:27;3.42;;;3.28;;
819;SDS011;392;48.838;2.322;2023-02-26T16:26:57;3.28;;;3.17;;
819;SDS011;392;48.838;2.322;2023-02-26T16:29:31;3.80;;;3.60;;
819;SDS011;392;48.838;2.322;2023-02-26T16:32:02;3.38;;;3.17;;
819;SDS011;392;48.838;2.322;2023-02-26T16:34:32;3.75;;;3.47;;
819;SDS011;392;48.838;2.322;2023-02-26T16:37:11;3.10;;;2.90;;
819;SDS011;392;48.838;2.322;2023-02-26T16:40:07;3.75;;;3.38;;
819;SDS011;392;48.838;2.322;2023-02-26T16:42:45;4.20;;;3.90;;
819;SDS011;392;48.838;2.322;2023-02-26T16:45:25;3.28;;;3.10;;
819;SDS011;392;48.838;2.322;2023-02-26T16:48:17;3.60;;;3.30;;